createdAt,value
2023-02-02T00:05:00.424Z,95937.84
2023-02-02T00:07:27.195Z,95942.41
2023-02-02T00:09:54.157Z,95936.94
2023-02-02T00:12:21.977Z,95930.31
2023-02-02T00:14:48.676Z,95932.88
2023-02-02T00:17:15.233Z,95933.56
2023-02-02T00:19:41.862Z,95948.00
2023-02-02T00:22:08.274Z,95940.06
2023-02-02T00:24:34.791Z,95939.84
2023-02-02T00:27:01.334Z,95945.53
2023-02-02T00:29:28.792Z,95930.53
2023-02-02T00:31:55.343Z,95944.50
2023-02-02T00:34:21.892Z,95937.63
2023-02-02T00:36:48.600Z,95945.53
2023-02-02T00:39:16.140Z,95933.91
2023-02-02T00:41:42.596Z,95936.09
2023-02-02T00:44:27.777Z,95927.84
2023-02-02T00:46:54.248Z,95931.44
2023-02-02T00:49:20.691Z,95937.50
2023-02-02T00:51:47.170Z,95934.94
2023-02-02T00:54:14.454Z,95939.94
2023-02-02T00:56:41.176Z,95937.63
2023-02-02T00:59:07.627Z,95940.66
2023-02-02T01:01:34.100Z,95936.00
2023-02-02T01:04:00.560Z,95949.75
2023-02-02T01:06:27.207Z,95953.91
2023-02-02T01:08:53.769Z,95945.19
2023-02-02T01:11:20.215Z,95960.66
2023-02-02T01:13:46.667Z,95950.63
2023-02-02T01:16:13.336Z,95964.50
2023-02-02T01:18:39.884Z,95952.63
2023-02-02T01:21:07.149Z,95956.69
2023-02-02T01:23:33.845Z,95960.66
2023-02-02T01:26:00.830Z,95958.78
2023-02-02T01:28:27.362Z,95954.59
2023-02-02T01:30:53.963Z,95958.69
2023-02-02T01:33:20.493Z,95962.06
2023-02-02T01:35:47.173Z,95959.38
2023-02-02T01:38:13.845Z,95961.13
2023-02-02T01:40:53.744Z,95960.31
2023-02-02T01:43:30.440Z,95957.41
2023-02-02T01:45:57.698Z,95964.50
2023-02-02T01:48:31.673Z,95958.09
2023-02-02T01:50:59.569Z,95958.56
2023-02-02T01:53:26.019Z,95962.06
2023-02-02T01:55:52.483Z,95951.00
2023-02-02T01:58:18.965Z,95955.53
2023-02-02T02:00:47.037Z,95958.78
2023-02-02T02:03:18.735Z,95959.84
2023-02-02T02:05:46.830Z,95969.94
2023-02-02T02:08:35.113Z,95967.41
2023-02-02T02:11:01.607Z,95974.25
2023-02-02T02:13:48.030Z,95968.69
2023-02-02T02:16:34.734Z,95976.47
2023-02-02T02:19:20.074Z,95983.69
2023-02-02T02:22:24.175Z,95987.53
2023-02-02T02:25:18.368Z,95981.94
2023-02-02T02:27:44.823Z,95994.59
2023-02-02T02:30:11.273Z,95988.91
2023-02-02T02:32:37.770Z,95986.94
2023-02-02T02:35:06.901Z,95997.06
2023-02-02T02:37:36.382Z,95994.38
2023-02-02T02:40:06.036Z,96000.31
2023-02-02T02:42:33.813Z,95999.84
2023-02-02T02:45:01.245Z,95999.03
2023-02-02T02:47:28.279Z,95998.44
2023-02-02T02:49:54.784Z,96002.53
2023-02-02T02:52:21.230Z,96008.91
2023-02-02T02:54:49.885Z,96009.72
2023-02-02T02:57:16.333Z,96023.22
2023-02-02T02:59:56.278Z,96019.84
2023-02-02T03:02:25.745Z,96018.91
2023-02-02T03:05:09.687Z,96014.38
2023-02-02T03:07:38.664Z,96025.09
2023-02-02T03:10:05.486Z,96030.22
2023-02-02T03:12:31.985Z,96033.78
2023-02-02T03:14:58.467Z,96040.09
2023-02-02T03:17:27.001Z,96029.03
2023-02-02T03:19:53.462Z,96030.78
2023-02-02T03:22:19.895Z,96038.22
2023-02-02T03:24:46.571Z,96036.94
2023-02-02T03:27:13.053Z,96037.75
2023-02-02T03:29:39.515Z,96035.06
2023-02-02T03:32:05.980Z,96042.06
2023-02-02T03:34:32.549Z,96044.50
2023-02-02T03:36:59.049Z,96040.78
2023-02-02T03:39:25.513Z,96038.91
2023-02-02T03:41:51.976Z,96041.94
2023-02-02T03:44:18.505Z,96041.59
2023-02-02T03:46:44.980Z,96046.38
2023-02-02T03:49:11.487Z,96045.91
2023-02-02T03:51:37.921Z,96036.25
2023-02-02T03:54:04.971Z,96045.69
2023-02-02T03:56:31.436Z,96043.59
2023-02-02T03:58:57.877Z,96048.59
2023-02-02T04:04:51.965Z,96052.75
2023-02-02T04:07:18.506Z,96046.84
2023-02-02T04:09:46.087Z,96045.09
2023-02-02T04:12:12.552Z,96042.88
2023-02-02T04:14:39.031Z,96040.19
2023-02-02T04:17:05.502Z,96044.03
2023-02-02T04:19:31.995Z,96044.97
2023-02-02T04:21:58.462Z,96044.16
2023-02-02T04:24:24.919Z,96040.56
2023-02-02T04:26:51.449Z,96044.28
2023-02-02T04:29:18.165Z,96046.16
2023-02-02T04:31:44.703Z,96048.72
2023-02-02T04:34:11.182Z,96044.25
2023-02-02T04:36:37.737Z,96050.31
2023-02-02T04:39:04.278Z,96046.13
2023-02-02T04:41:30.781Z,96041.91
2023-02-02T04:43:57.349Z,96050.97
2023-02-02T04:46:23.899Z,96038.09
2023-02-02T04:48:50.416Z,96048.69
2023-02-02T04:51:18.735Z,96049.38
2023-02-02T04:57:06.979Z,96051.00
2023-02-02T04:59:33.446Z,96053.00
2023-02-02T05:02:00.671Z,96041.81
2023-02-02T05:04:27.562Z,96044.81
2023-02-02T05:06:54.091Z,96048.31
2023-02-02T05:09:20.570Z,96048.53
2023-02-02T05:11:47.025Z,96054.13
2023-02-02T05:14:13.500Z,96063.75
2023-02-02T05:16:40.036Z,96068.03
2023-02-02T05:19:06.538Z,96058.28
2023-02-02T05:21:33.007Z,96054.81
2023-02-02T05:24:01.239Z,96066.56
2023-02-02T05:26:27.771Z,96063.56
2023-02-02T05:28:54.235Z,96062.63
2023-02-02T05:31:20.910Z,96056.56
2023-02-02T05:33:47.492Z,96058.44
2023-02-02T05:36:14.100Z,96063.69
2023-02-02T05:38:40.578Z,96062.63
2023-02-02T05:41:07.120Z,96067.75
2023-02-02T05:43:33.931Z,96070.31
2023-02-02T05:46:00.564Z,96068.44
2023-02-02T05:48:27.148Z,96058.69
2023-02-02T05:51:00.261Z,96065.44
2023-02-02T05:53:27.697Z,96066.84
2023-02-02T05:55:54.163Z,96062.41
2023-02-02T05:58:20.630Z,96057.06
2023-02-02T06:00:47.087Z,96059.03
2023-02-02T06:03:13.681Z,96056.00
2023-02-02T06:05:40.173Z,96057.06
2023-02-02T06:08:07.707Z,96059.63
2023-02-02T06:10:34.221Z,96061.59
2023-02-02T06:13:00.684Z,96060.66
2023-02-02T06:15:29.055Z,96070.31
2023-02-02T06:17:55.568Z,96063.34
2023-02-02T06:20:22.553Z,96064.63
2023-02-02T06:22:49.165Z,96069.84
2023-02-02T06:25:15.819Z,96066.69
2023-02-02T06:27:42.276Z,96070.78
2023-02-02T06:30:09.069Z,96073.91
2023-02-02T06:32:35.536Z,96071.16
2023-02-02T06:35:01.982Z,96073.47
2023-02-02T06:37:30.683Z,96073.13
2023-02-02T06:39:57.321Z,96073.94
2023-02-02T06:42:23.773Z,96080.47
2023-02-02T06:44:50.279Z,96081.28
2023-02-02T06:47:16.788Z,96086.72
2023-02-02T06:49:43.285Z,96086.72
2023-02-02T06:52:09.783Z,96093.38
2023-02-02T06:54:36.229Z,96096.38
2023-02-02T06:57:02.800Z,96095.44
2023-02-02T06:59:29.298Z,96099.75
2023-02-02T07:01:55.815Z,96103.47
2023-02-02T07:04:22.321Z,96102.75
2023-02-02T07:06:48.857Z,96097.78
2023-02-02T07:09:15.337Z,96099.97
2023-02-02T07:11:42.489Z,96099.03
2023-02-02T07:14:11.481Z,96102.88
2023-02-02T07:16:38.790Z,96102.88
2023-02-02T07:19:05.346Z,96103.09
2023-02-02T07:21:36.184Z,96104.97
2023-02-02T07:24:03.218Z,96107.03
2023-02-02T07:26:29.765Z,96108.06
2023-02-02T07:28:56.284Z,96113.75
2023-02-02T07:31:26.342Z,96114.44
2023-02-02T07:33:52.898Z,96114.44
2023-02-02T07:36:20.396Z,96122.34
2023-02-02T07:38:47.178Z,96123.28
2023-02-02T07:41:13.809Z,96121.41
2023-02-02T07:43:40.391Z,96125.97
2023-02-02T07:46:08.323Z,96129.34
2023-02-02T07:48:35.056Z,96119.72
2023-02-02T07:51:02.109Z,96122.97
2023-02-02T07:53:28.633Z,96125.19
2023-02-02T07:56:04.819Z,96129.84
2023-02-02T07:58:31.253Z,96130.34
2023-02-02T08:01:00.873Z,96136.06
2023-02-02T08:03:27.388Z,96132.69
2023-02-02T08:05:53.858Z,96139.53
2023-02-02T08:08:20.340Z,96139.88
2023-02-02T08:10:50.376Z,96138.69
2023-02-02T08:13:16.876Z,96136.25
2023-02-02T08:15:43.381Z,96138.69
2023-02-02T08:18:09.858Z,96139.09
2023-02-02T08:20:36.317Z,96145.84
2023-02-02T08:23:02.790Z,96147.00
2023-02-02T08:25:29.338Z,96147.00
2023-02-02T08:27:58.424Z,96156.44
2023-02-02T08:33:54.570Z,96157.94
2023-02-02T08:36:22.058Z,96166.44
2023-02-02T08:38:48.572Z,96163.78
2023-02-02T08:41:15.797Z,96157.25
2023-02-02T08:43:42.375Z,96159.00
2023-02-02T08:46:09.602Z,96159.81
2023-02-02T08:48:36.119Z,96162.13
2023-02-02T08:51:02.803Z,96162.84
2023-02-02T08:53:29.318Z,96162.84
2023-02-02T08:55:59.741Z,96167.72
2023-02-02T08:58:26.657Z,96171.22
2023-02-02T09:00:53.170Z,96175.31
2023-02-02T09:03:19.661Z,96176.00
2023-02-02T09:05:46.157Z,96171.91
2023-02-02T09:08:12.645Z,96178.44
2023-02-02T09:10:39.150Z,96181.81
2023-02-02T09:13:05.663Z,96182.31
2023-02-02T09:15:32.134Z,96189.16
2023-02-02T09:17:58.642Z,96185.66
2023-02-02T09:20:25.254Z,96190.91
2023-02-02T09:22:51.760Z,96191.72
2023-02-02T09:25:18.440Z,96196.03
2023-02-02T09:27:44.920Z,96193.94
2023-02-02T09:30:11.692Z,96194.06
2023-02-02T09:32:38.195Z,96205.81
2023-02-02T09:35:04.929Z,96198.50
2023-02-02T09:37:33.618Z,96192.91
2023-02-02T09:40:00.160Z,96192.22
2023-02-02T09:42:46.940Z,96188.38
2023-02-02T09:45:19.049Z,96193.50
2023-02-02T09:47:53.500Z,96187.56
2023-02-02T09:50:20.039Z,96193.97
2023-02-02T09:52:48.030Z,96182.66
2023-02-02T09:55:40.886Z,96188.13
2023-02-02T09:58:07.305Z,96174.50
2023-02-02T10:00:34.627Z,96179.97
2023-02-02T10:03:02.813Z,96173.66
2023-02-02T10:05:31.212Z,96174.66
2023-02-02T10:07:58.579Z,96180.09
2023-02-02T10:10:28.496Z,96172.50
2023-02-02T10:12:56.709Z,96174.69
2023-02-02T10:15:28.390Z,96180.13
2023-02-02T10:18:05.814Z,96172.88
2023-02-02T10:20:50.796Z,96177.75
2023-02-02T10:23:23.516Z,96180.91
2023-02-02T10:26:10.197Z,96181.22
2023-02-02T10:32:15.243Z,96193.41
2023-02-02T10:34:42.413Z,96191.13
2023-02-02T10:37:08.871Z,96188.03
2023-02-02T10:39:44.589Z,96186.59
2023-02-02T10:42:14.484Z,96186.53
2023-02-02T10:44:44.273Z,96192.75
2023-02-02T10:47:11.826Z,96191.88
2023-02-02T10:49:38.629Z,96192.91
2023-02-02T10:52:14.139Z,96181.19
2023-02-02T10:54:56.015Z,96204.75
2023-02-02T10:57:39.997Z,96195.25
2023-02-02T11:00:11.032Z,96200.97
2023-02-02T11:02:37.548Z,96200.53
2023-02-02T11:05:22.776Z,96195.31
2023-02-02T11:07:49.713Z,96204.31
2023-02-02T11:10:16.338Z,96199.22
2023-02-02T11:12:46.255Z,96204.25
2023-02-02T11:15:28.821Z,96196.13
2023-02-02T11:17:55.291Z,96198.91
2023-02-02T11:20:23.114Z,96201.88
2023-02-02T11:22:49.961Z,96202.44
2023-02-02T11:25:26.586Z,96208.69
2023-02-02T11:27:53.062Z,96202.28
2023-02-02T11:30:21.968Z,96206.38
2023-02-02T11:32:49.744Z,96198.31
2023-02-02T11:35:23.323Z,96199.84
2023-02-02T11:37:54.136Z,96195.50
2023-02-02T11:40:24.755Z,96192.84
2023-02-02T11:42:51.870Z,96194.22
2023-02-02T11:45:20.253Z,96200.50
2023-02-02T11:47:46.718Z,96190.47
2023-02-02T11:50:17.958Z,96202.25
2023-02-02T11:52:44.958Z,96190.22
2023-02-02T11:55:15.125Z,96194.69
2023-02-02T11:57:41.585Z,96195.34
2023-02-02T12:03:39.723Z,96199.56
2023-02-02T12:06:25.317Z,96191.22
2023-02-02T12:12:13.549Z,96184.88
2023-02-02T12:14:46.093Z,96199.34
2023-02-02T12:17:12.519Z,96205.56
2023-02-02T12:19:42.029Z,96214.22
2023-02-02T12:22:10.536Z,96210.50
2023-02-02T12:24:50.060Z,96205.38
2023-02-02T12:27:19.622Z,96197.19
2023-02-02T12:29:49.059Z,96214.25
2023-02-02T12:32:21.989Z,96211.31
2023-02-02T12:34:54.601Z,96210.28
2023-02-02T12:37:21.070Z,96206.63
2023-02-02T12:39:47.510Z,96204.06
2023-02-02T12:42:23.103Z,96208.94
2023-02-02T12:45:03.485Z,96210.81
2023-02-02T12:47:33.085Z,96223.28
2023-02-02T12:50:14.911Z,96219.91
2023-02-02T12:52:51.319Z,96224.03
2023-02-02T12:55:24.290Z,96230.13
2023-02-02T12:57:53.539Z,96230.81
2023-02-02T13:00:39.654Z,96225.03
2023-02-02T13:03:06.248Z,96225.56
2023-02-02T13:05:36.851Z,96233.41
2023-02-02T13:08:13.035Z,96232.38
2023-02-02T13:10:43.126Z,96236.03
2023-02-02T13:13:09.595Z,96222.38
2023-02-02T13:15:36.384Z,96228.06
2023-02-02T13:18:29.292Z,96230.09
2023-02-02T13:20:56.687Z,96230.75
2023-02-02T13:23:29.004Z,96235.53
2023-02-02T13:26:00.606Z,96236.72
2023-02-02T13:28:38.305Z,96228.19
2023-02-02T13:31:06.550Z,96242.22
2023-02-02T13:33:34.119Z,96229.75
2023-02-02T13:36:01.163Z,96244.63
2023-02-02T13:38:30.467Z,96238.91
2023-02-02T13:41:00.632Z,96228.91
2023-02-02T13:43:34.963Z,96240.47
2023-02-02T13:46:20.303Z,96246.28
2023-02-02T13:49:06.773Z,96257.56
2023-02-02T13:51:51.139Z,96267.00
2023-02-02T13:54:36.349Z,96260.13
2023-02-02T13:57:15.843Z,96268.78
2023-02-02T13:59:42.331Z,96262.13
2023-02-02T14:02:20.893Z,96262.94
2023-02-02T14:04:52.423Z,96276.97
2023-02-02T14:07:19.434Z,96271.13
2023-02-02T14:09:47.239Z,96272.66
2023-02-02T14:12:27.498Z,96278.09
2023-02-02T14:14:53.987Z,96274.09
2023-02-02T14:17:23.506Z,96281.34
2023-02-02T14:19:51.031Z,96290.50
2023-02-02T14:22:18.700Z,96290.97
2023-02-02T14:24:45.957Z,96288.66
2023-02-02T14:27:15.964Z,96293.44
2023-02-02T14:29:46.986Z,96295.78
2023-02-02T14:32:19.684Z,96297.53
2023-02-02T14:34:46.546Z,96299.53
2023-02-02T14:37:26.375Z,96304.91
2023-02-02T14:40:11.103Z,96309.34
2023-02-02T14:43:11.617Z,96316.94
2023-02-02T14:45:41.780Z,96324.16
2023-02-02T14:48:12.869Z,96318.56
2023-02-02T14:50:39.468Z,96330.31
2023-02-02T14:53:13.176Z,96321.09
2023-02-02T14:56:06.350Z,96327.53
2023-02-02T14:58:51.433Z,96334.41
2023-02-02T15:01:17.993Z,96347.25
2023-02-02T15:03:48.888Z,96347.84
2023-02-02T15:06:15.441Z,96361.75
2023-02-02T15:08:41.896Z,96359.28
2023-02-02T15:11:26.949Z,96365.59
2023-02-02T15:13:54.845Z,96367.22
2023-02-02T15:16:26.596Z,96366.41
2023-02-02T15:18:57.703Z,96376.81
2023-02-02T15:21:24.172Z,96373.88
2023-02-02T15:23:50.887Z,96384.97
2023-02-02T15:26:18.780Z,96382.41
2023-02-02T15:29:05.668Z,96385.09
2023-02-02T15:31:45.615Z,96398.16
2023-02-02T15:34:30.822Z,96405.25
2023-02-02T15:36:58.828Z,96403.06
2023-02-02T15:39:42.172Z,96409.00
2023-02-02T15:42:36.971Z,96411.66
2023-02-02T15:45:03.670Z,96422.16
2023-02-02T15:47:36.731Z,96429.63
2023-02-02T15:50:04.181Z,96431.28
2023-02-02T15:52:35.466Z,96444.56
2023-02-02T15:55:02.005Z,96441.53
2023-02-02T15:57:32.455Z,96454.00
2023-02-02T15:59:59.295Z,96454.56
2023-02-02T16:02:31.929Z,96459.47
2023-02-02T16:04:58.421Z,96473.31
2023-02-02T16:07:29.310Z,96475.31
2023-02-02T16:09:55.844Z,96476.44
2023-02-02T16:12:22.894Z,96486.00
2023-02-02T16:14:50.138Z,96487.03
2023-02-02T16:17:23.725Z,96496.28
2023-02-02T16:19:50.867Z,96499.78
2023-02-02T16:22:18.519Z,96498.22
2023-02-02T16:24:47.291Z,96496.13
2023-02-02T16:27:14.843Z,96504.84
2023-02-02T16:29:41.527Z,96505.06
2023-02-02T16:32:20.423Z,96505.19
2023-02-02T16:34:47.325Z,96514.72
2023-02-02T16:37:15.246Z,96526.25
2023-02-02T16:39:41.718Z,96532.19
2023-02-02T16:42:09.530Z,96529.22
2023-02-02T16:44:39.255Z,96540.53
2023-02-02T16:47:15.474Z,96529.56
2023-02-02T16:49:41.975Z,96539.81
2023-02-02T16:52:08.530Z,96544.13
2023-02-02T16:54:35.010Z,96540.63
2023-02-02T16:57:01.787Z,96538.56
2023-02-02T16:59:29.360Z,96556.50
2023-02-02T17:01:59.921Z,96558.34
2023-02-02T17:04:30.407Z,96562.78
2023-02-02T17:06:57.599Z,96573.16
2023-02-02T17:09:34.579Z,96578.59
2023-02-02T17:12:09.314Z,96583.81
2023-02-02T17:14:42.812Z,96588.59
2023-02-02T17:17:09.298Z,96593.03
2023-02-02T17:19:35.869Z,96590.03
2023-02-02T17:22:02.610Z,96594.22
2023-02-02T17:24:29.148Z,96602.72
2023-02-02T17:26:55.660Z,96608.09
2023-02-02T17:29:22.238Z,96606.66
2023-02-02T17:31:48.777Z,96624.91
2023-02-02T17:34:15.465Z,96624.81
2023-02-02T17:36:42.387Z,96637.94
2023-02-02T17:39:11.485Z,96645.03
2023-02-02T17:41:38.879Z,96622.78
2023-02-02T17:44:05.615Z,96642.69
2023-02-02T17:46:33.026Z,96646.47
2023-02-02T17:48:59.599Z,96649.34
2023-02-02T17:51:26.084Z,96660.63
2023-02-02T17:53:55.431Z,96671.91
2023-02-02T17:56:22.151Z,96663.41
2023-02-02T17:58:48.615Z,96676.19
2023-02-02T18:01:15.147Z,96669.34
2023-02-02T18:03:41.671Z,96678.88
2023-02-02T18:06:09.165Z,96682.13
2023-02-02T18:08:35.635Z,96680.63
2023-02-02T18:11:02.231Z,96689.22
2023-02-02T18:13:28.752Z,96692.69
2023-02-02T18:15:56.260Z,96689.41
2023-02-02T18:18:23.001Z,96694.13
2023-02-02T18:20:49.766Z,96691.06
2023-02-02T18:23:16.445Z,96693.09
2023-02-02T18:25:42.958Z,96715.56
2023-02-02T18:28:09.610Z,96715.03
2023-02-02T18:30:39.480Z,96716.78
2023-02-02T18:33:07.251Z,96714.31
2023-02-02T18:35:33.727Z,96710.94
2023-02-02T18:38:00.215Z,96711.84
2023-02-02T18:40:26.686Z,96715.97
2023-02-02T18:42:55.557Z,96725.56
2023-02-02T18:45:22.265Z,96727.31
2023-02-02T18:47:49.458Z,96729.69
2023-02-02T18:50:16.191Z,96732.97
2023-02-02T18:52:42.699Z,96739.72
2023-02-02T18:55:09.272Z,96747.22
2023-02-02T18:57:35.817Z,96778.25
2023-02-02T19:00:02.594Z,96798.88
2023-02-02T19:02:29.093Z,96805.94
2023-02-02T19:05:14.507Z,96810.50
2023-02-02T19:07:56.219Z,96812.34
2023-02-02T19:10:23.149Z,96822.56
2023-02-02T19:12:57.756Z,96835.00
2023-02-02T19:15:26.062Z,96830.66
2023-02-02T19:17:53.145Z,96844.06
2023-02-02T19:20:19.649Z,96849.25
2023-02-02T19:22:46.457Z,96848.19
2023-02-02T19:25:13.080Z,96850.81
2023-02-02T19:27:39.760Z,96854.16
2023-02-02T19:30:08.833Z,96855.63
2023-02-02T19:32:36.292Z,96862.75
2023-02-02T19:35:02.877Z,96856.72
2023-02-02T19:37:30.057Z,96891.16
2023-02-02T19:40:16.878Z,96869.34
2023-02-02T19:43:18.826Z,96877.53
2023-02-02T19:45:45.287Z,96880.28
2023-02-02T19:48:23.592Z,96881.47
2023-02-02T19:50:50.090Z,96877.09
2023-02-02T19:53:20.646Z,96890.13
2023-02-02T19:55:47.275Z,96901.44
2023-02-02T19:58:13.771Z,96897.44
2023-02-02T20:00:40.979Z,96906.53
2023-02-02T20:03:23.401Z,96897.81
2023-02-02T20:05:50.810Z,96914.16
2023-02-02T20:08:24.232Z,96926.28
2023-02-02T20:10:54.362Z,96917.28
2023-02-02T20:13:21.863Z,96923.94
2023-02-02T20:15:49.157Z,96936.19
2023-02-02T20:18:25.281Z,96942.94
2023-02-02T20:20:53.305Z,96940.38
2023-02-02T20:23:25.845Z,96937.16
2023-02-02T20:25:52.334Z,96940.09
2023-02-02T20:28:37.649Z,96945.84
2023-02-02T20:31:04.805Z,96951.50
2023-02-02T20:33:31.357Z,96950.28
2023-02-02T20:35:57.860Z,96958.78
2023-02-02T20:38:25.283Z,96956.22
2023-02-02T20:40:52.217Z,96954.50
2023-02-02T20:43:18.747Z,96963.81
2023-02-02T20:45:45.260Z,96963.34
2023-02-02T20:48:12.410Z,96979.84
2023-02-02T20:50:39.069Z,96973.91
2023-02-02T20:53:05.751Z,96977.00
2023-02-02T20:55:36.101Z,96983.09
2023-02-02T20:58:03.562Z,96987.28
2023-02-02T21:00:30.253Z,96982.59
2023-02-02T21:02:56.750Z,96985.28
2023-02-02T21:05:23.309Z,96982.44
2023-02-02T21:07:54.597Z,96996.63
2023-02-02T21:10:22.157Z,97001.91
2023-02-02T21:12:51.785Z,96989.94
2023-02-02T21:15:19.203Z,97009.59
2023-02-02T21:17:45.792Z,97001.13
2023-02-02T21:20:13.035Z,96999.19
2023-02-02T21:22:39.640Z,97000.19
2023-02-02T21:25:06.328Z,97009.75
2023-02-02T21:27:32.869Z,97014.78
2023-02-02T21:29:59.397Z,97017.97
2023-02-02T21:32:25.877Z,97024.88
2023-02-02T21:34:52.450Z,97019.94
2023-02-02T21:37:18.948Z,97031.44
2023-02-02T21:39:49.635Z,97031.38
2023-02-02T21:42:19.839Z,97042.16
2023-02-02T21:44:54.308Z,97039.34
2023-02-02T21:47:27.085Z,97050.88
2023-02-02T21:49:57.337Z,97040.47
2023-02-02T21:52:23.857Z,97038.69
2023-02-02T21:54:50.429Z,97038.28
2023-02-02T21:57:16.955Z,97057.34
2023-02-02T21:59:45.642Z,97053.78
2023-02-02T22:02:30.993Z,97062.13
2023-02-02T22:04:57.916Z,97070.44
2023-02-02T22:07:25.062Z,97069.63
2023-02-02T22:09:51.526Z,97069.91
2023-02-02T22:12:18.585Z,97070.00
2023-02-02T22:14:45.379Z,97069.53
2023-02-02T22:17:20.249Z,97080.88
2023-02-02T22:19:46.775Z,97064.22
2023-02-02T22:22:13.300Z,97064.22
2023-02-02T22:24:39.797Z,97080.78
2023-02-02T22:27:14.888Z,97080.16
2023-02-02T22:29:41.350Z,97089.66
2023-02-02T22:35:29.472Z,97091.66
2023-02-02T22:37:56.017Z,97100.22
2023-02-02T22:40:22.802Z,97105.31
2023-02-02T22:42:53.240Z,97096.09
2023-02-02T22:45:19.763Z,97100.50
2023-02-02T22:47:47.642Z,97112.34
2023-02-02T22:50:15.058Z,97116.31
2023-02-02T22:52:42.020Z,97131.47
2023-02-02T22:58:36.978Z,97125.22
2023-02-02T23:01:03.512Z,97121.91
2023-02-02T23:03:30.059Z,97124.44
2023-02-02T23:05:56.583Z,97135.63
2023-02-02T23:08:23.066Z,97139.25
2023-02-02T23:10:49.661Z,97138.63
2023-02-02T23:13:16.154Z,97151.34
2023-02-02T23:15:42.664Z,97157.56
2023-02-02T23:18:09.191Z,97156.44
2023-02-02T23:20:35.620Z,97154.25
2023-02-02T23:23:02.155Z,97146.75
2023-02-02T23:25:28.664Z,97158.44
2023-02-02T23:27:55.132Z,97148.25
2023-02-02T23:30:24.427Z,97165.63
2023-02-02T23:32:51.324Z,97146.81
2023-02-02T23:35:17.839Z,97155.63
2023-02-02T23:37:44.384Z,97161.63
2023-02-02T23:40:11.237Z,97155.78
2023-02-02T23:42:37.781Z,97164.28
2023-02-02T23:45:04.415Z,97165.44
2023-02-02T23:47:32.277Z,97170.16
2023-02-02T23:49:58.775Z,97162.72
2023-02-02T23:52:25.255Z,97158.72
2023-02-02T23:54:52.913Z,97159.00
2023-02-02T23:57:19.419Z,97164.44
2023-02-02T23:59:46.007Z,97169.03
